Main page
METAR-TAF:

METAR-TAF

Airports :

Abidjan, Ivory coast

Port Bouet Airport

latitude: 05-15N, longitude: 003-56W, elevation: 7 m

Current weather observation

The report was made 34 minutes ago, at 02:00 UTC
Wind 2 kt from variable directions
Temperature 25°C
Humidity 89%
Pressure 1013 hPa
Visibility: 9000 m
Few clouds at a height of 1200 ft
Broken clouds at a height of 4000 ft

METAR: DIAP 260200Z VRB02KT 9000 FEW012 BKN040 25/23 Q1013 NOSIG

Time: 02:34 (02:34 UTC)

Forecast

The report was made 3 hours and 34 minutes ago, at 23:00 UTC
Forecast valid from 26 at 00 UTC to 27 at 06 UTC
Wind 8 kt from the Southwest
Visibility: 8000 m
Scattered clouds at a height of 1200 ft
Broken clouds at a height of 4000 ft
Probability 40% :
Temporary
from 26 at 04 UTC to 26 at 10 UTC
Visibility: 4000 m
Scattered clouds at a height of 800 ft
Broken clouds at a height of 3000 ft
drizzle

TAF: DIAP 252300Z 2600/2706 22008KT 8000 SCT012 BKN040 PROB40 TEMPO 2604/2610 4000 DZ SCT008 BKN030

Weather observations and forecasts of more than 4000 airports (METAR and TAF reports).

The available stations are represented by yellow and red dots on the map.

Hover mouse over dot to see the name of the station.

Then click to see weather observations and forecasts.

To change the map : click on the green buttons with a black cross to zoom in, on the green button with a dash to zoom out, or on the green arrows for adjacent maps.


METAR-TAF: